Air Resources Laboratory banner image
Air Resources Laboratory web site National Oceanic and Atmospheric Administration (NOAA)

ak metar


PAAQ 142353Z 07004KT 1 1/4SM -SN BR OVC030 M02/M02 A2944 RMK AO2 SNB06 SLP972
 P0000 60000 T10171017 11011 21022 53002=
PABA 142352Z AUTO 06012KT 8SM -SN OVC012 M08/M09 A2963 RMK AO2 SLP019 P0000
 60000 T10781089 11072 21078 56000 FZRANO TSNO=
PABE 142353Z 03007KT 10SM OVC041 M05/M06 A2955 RMK AO2 SNE47 SLP008 P0002 60003
 T10501061 11044 21061 58008=
PABI 142353Z 24004KT 1/2SM SN FZFG VV010 M03/M03 A2947 RMK AO2 SLP006 P0003
 60004 T10281028 11028 21067 56015=
PABL 142356Z AUTO 12006KT 10SM FEW028 M09/M11 A2959 RMK AO2 SLP022 T10941106
 11028 21094 51016 FZRANO=
PABR 142353Z 06023G29KT 6SM BLSN OVC055 M17/M19 A2985 RMK AO2 PK WND 06032/2314
 SLP109 T11671194 11161 21172 56002=
PABT 142353Z 00000KT 7SM -FZDZSN BR FEW008 OVC014 M02/M03 A2956 RMK AO2
 FZDZB53SNB53 SLP023 60000 931000 4/025 I1000 I6000 T10171033 11011 21017 58003=
PABV 142356Z AUTO 22006KT 10SM OVC048 01/M02 A2946 RMK AO2 SLP985 T00061022
 10006 21022 53001 FZRANO $=
PACD 142353Z 15021G29KT 10SM FEW021 OVC085 02/00 A2942 RMK AO2 PK WND
 16031/2340 UPB03E10SNB10E21 SLP964 P0000 60000 T00170000 10017 21017 56024=
PACV 142353Z 06005KT 10SM -RA OVC035 06/05 A2928 RMK AO2 SLP915 P0002 60024
 T00610050 10067 20039 53009=
PADE 142353Z AUTO 16008KT 10SM OVC033 M03/M07 A2953 RMK AO2 SLP000 T10281067
 11011 21056 51013 TSNO $=
PADK 142356Z AUTO 22017G24KT 10SM FEW042 04/M03 A2888 RMK AO2 SLP779 60002
 T00391028 10039 20011 58007=
PADL 142356Z 05004KT 10SM FEW012 OVC040 00/M01 A2958 RMK AO2 SLP022 60000
 T00001006 10000 21011 56002=
PADQ 142353Z 24005KT 10SM CLR 02/M02 A2957 RMK AO2 SLP015 T00221022 10028 21011
 53002 $=
PADU 142354Z 13013G209KT 8SM -RA SCT014 OVC022 06/02 A2917 RMK VIS NE-SE 6 CS=
PAEC 142346Z 34006KT 10SM OVC030 M02/M04 A2932 RMK NOSPECI=
PAED 142356Z AUTO 18005KT 10SM BKN037 OVC060 00/00 A2945 RMK AO2 SLP970
 T00001001 10000 21019 53001=
PAEG 142353Z AUTO 00000KT 3/4SM -SN BR VV015 M03/M04 A2945 RMK AO2 SNB2257
 SLP984 P0002 60002 T10281039 11022 21044 56016 TSNO $=
PAEI 142356Z AUTO 00000KT 10SM SCT090 M08/M09 A2949 RMK AO2 SLP999 T10781089
 11078 21116 57016 VISNO RWY14 CHINO RWY14 $=
PAEL 142351Z 30014KT 5SM RA BR OVC021 06/04 A2981 RMK SPB E23025KT SEA 2 SWELL
 2 SW MAX 10.2 70191 NOSPECI=
PAEN 142353Z 16005KT 10SM FEW006 OVC120 00/00 A2948 RMK AO2 SLP985 T00000000
 10000 21033 55002=
PAFA 142353Z 00000KT 10SM FEW080 BKN100 OVC200 M09/M11 A2951 RMK AO2 SLP003
 T10941111 11094 21156 56015=
PAFB 142358Z 00000KT 10SM BKN085 OVC100 M09/M10 A2952 RMK AO2A SLP007 4/011
 T10891099 11089 21142 56015 $=
PAFE 150041Z AUTO 13009KT 10SM FEW023 BKN030 BKN039 06/04 A3001 RMK AO2
 RAB21E36 P0000=
PAFM 142356Z AUTO 24003KT 2 1/2SM -SN BR SCT004 OVC011 M01/M02 A2959 RMK AO2
 SLP035 P0000 60000 T10111017 50005 FZRANO=
PAGA 142356Z AUTO 26003KT 1 1/4SM BR OVC006 M06/M06 A2961 RMK AO2 SLP028 60000
 T10561061 11017 21072 51003 FZRANO=
PAGK 142353Z AUTO 23004KT 1SM -SN BR OVC022 M01/M01 A2933 RMK AO2 SLP957 P0002
 60013 T10061006 10006 21006 53002 TSNO=
PAGL 142356Z AUTO 21003KT 10SM -SN OVC044 M04/M07 A2959 RMK AO2 SNB56 SLP017
 P0000 60000 T10441067 11033 21044 53005 FZRANO=
PAGM 142356Z AUTO 24011KT 220V280 10SM OVC034 M06/M11 A2952 RMK AO2 SNE21
 SLP003 P0000 60000 T10561111 11056 21056 58003 FZRANO=
PAGS 142356Z AUTO 14005KT 9SM -RA BKN025 OVC032 06/04 A2986 RMK AO2 SLP112
 P0003 60013 T00560044 10089 20056 51022=
PAGY 142353Z AUTO 21024G35KT 10SM BKN055 BKN065 OVC080 08/03 A2968 RMK AO2 PK
 WND 21040/2301 RAE27 SLP050 P0000 60002 T00830033 10089 20044 53021 TSNO=
PAHN 142354Z AUTO 11013G28KT 10SM -RA FEW016 OVC048 07/05 A2973 RMK AO2 PK WND
 14036/2340 SLP069 P0001 60012 T00670050 10083 20067 53020 TSNO=
PAHO 142353Z 00000KT 10SM BKN020 03/01 A2951 RMK AO2 SLP995 60000 T00280006
 10033 21017 53003 $=
PAHP 142356Z AUTO 06007KT 10SM CLR M09/M11 A2957 RMK AO2 SLP049 T10891111 11072
 21111 58007 FZRANO=
PAII 142356Z AUTO 12003KT 10SM BKN037 01/00 A2959 RMK AO2 SLP025 T00110000
 10017 21033 53001 FZRANO=
PAIL 142353Z 29003KT 10SM FEW032 SCT085 00/M01 A2958 RMK AO2 SLP020 I6000
 T00001006 10006 21022 53003=
PAIM 150024Z AUTO 00000KT 10SM -SHSN OVC004 M04/M04 A2953 RMK AO2 SLP022=
PAIN 142356Z AUTO 34005KT 2 1/2SM -SN BR OVC005 M01/M02 A2942 RMK AO2 SLP994
 P0000 60000 T10111022 10000 21017 55006 FZRANO=
PAJC 142357Z AUTO 13004KT 10SM UP FEW018 BKN040 OVC060 02/01 A2959 RMK AO2
 UPB55 SLP021 P0000 60000 T00220011 10028 20011 58002 FZRANO=
PAJN 142353Z 10SM FEW031 SCT044 BKN100 BKN130 07/03 A2987 RMK AO2 SLP115 60008
 T00720033 10083 20072 51022=
PAKK 142356Z AUTO 00000KT 10SM OVC034 M06/M07 A2954 RMK AO2 SLP017 T10611067
 11033 21078 50004 FZRANO=
PAKN 142354Z 11003KT 10SM CLR 01/00 A2956 RMK AO2 SLP011 I6000 T00060000 10006
 21039 50000=
PAKP 142356Z AUTO 24010KT 9SM -SN OVC032 M03/M04 A2947 RMK AO2 SLP021 P0000
 60000 T10281039 11022 21028 51001 FZRANO=
PAKT 142353Z 15006KT 10SM FEW016 BKN032 BKN080 08/06 A3008 RMK AO2 SLP186
 HARBOR WND 09010KT 60004 T00780061 10089 20078 53006=
PAKU 142345Z 07017KT 4SM R06/P6000FT -SN BLSN FEW010 BKN045 BKN075 OVC090
 M13/M16 A2971=
PAKV 142353Z AUTO 00000KT 10SM BKN006 OVC011 M05/M06 A2962 RMK AO2 UPE46 SLP032
 P0000 60000 T10501056 11039 21061 55004 TSNO=
PAKW 142353Z AUTO 21006KT 10SM -RA FEW016 BKN025 OVC033 07/06 A3005 RMK AO2
 RAB2258 SLP177 P0001 60006 T00670056 10089 20067 53003 TSNO=
PALH 142353Z 19004KT 10SM OVC070 00/M01 A2947 RMK AO2 SLP980 T00001011 10006
 21011 55000=
PALJ 142350Z 00000KT 30SM FEW040 00/M04 A2955 RMK EST PASS OPEN NOSPECI=
PALU 150007Z AUTO 07013KT 3SM -SN OVC010 M09/M10 A2955 RMK AO2 SLP006=
PAMC 142353Z AUTO 29003KT 1/2SM FZFG VV006 M01/M03 A2957 RMK AO2 SLP018 I1002
 I6004 T10111028 11011 21033 56007 TSNO=
PAMD 142357Z AUTO 27017G26KT 10SM FEW021 BKN041 OVC050 05/02 A2934 RMK AO2 PK
 WND 26033/2320 RAE53 SLP927 P0000 60030 T00500022 10050 20039 51027=
PAMH 142356Z AUTO 00000KT 10SM UP OVC065 M04/M05 A2953 RMK AO2 UPB50 SLP018
 P0000 60000 T10441050 11039 21078 56005 FZRANO=
PAMM 142356Z AUTO 18004KT 10SM BKN026 OVC035 08/06 A3011 RMK AO2 SLP185 60003
 T00780056 10083 20078 53005=
PAMR 142353Z 19004KT 10SM BKN035 OVC070 01/M01 A2946 RMK AO2 SLP976 T00061006
 10006 21011 53001=
PAMY 142356Z AUTO 07011KT 10SM OVC038 M04/M05 A2951 RMK AO2 SNE14B30E42 SLP994
 P0000 60000 T10391050 11039 21050 56014 FZRANO=
PANC 142353Z 18006KT 10SM FEW010 OVC070 01/M01 A2945 RMK AO2 SLP976 PRESENT WX
 VCSH NE-SE 4/002 T00061006 10006 21006 55000=
PANI 142356Z AUTO 10004KT 9SM OVC004 M05/M06 A2957 RMK AO2 SLP981 T10501056
 11039 21056 56003 FZRANO=
PANN 142353Z AUTO 32008KT 10SM OVC080 A2949 RMK AO2 SLPNO 6//// 56022 TSNO $=
PANT 142353Z AUTO VRB04KT 10SM FEW025 OVC037 07/06 A3009 RMK AO2 SLP191 60012
 T00720056 10089 20072 53004 TSNO=
PAOH 142356Z AUTO 00000KT 10SM -RA BKN029 BKN045 OVC100 06/04 A2988 RMK AO2
 SLP118 P0009 60022 T00560039 10083 20056 51023=
PAOM 142353Z 19011KT 9SM SCT023 OVC032 M05/M07 A2953 RMK AO2 SNE49 SLP001 P0000
 60000 T10501067 11044 21050 52001=
PAOR 142353Z 00000KT 10SM FEW015 BKN030 OVC040 M09/M09 A2939 RMK AO2 SNB18E33
 SLP004 4/006 T10891094 11089 21117 58004=
PAOT 142353Z 20008KT 10SM FEW023 BKN034 OVC043 M03/M05 A2953 RMK AO2 SLP999
 60000 I6000 T10331050 11017 21033 51012 $=
PAPB 142353Z AUTO 12025G34KT 3SM -SN BR SCT008 OVC016 02/02 A2912 RMK AO2 PK
 WND 11034/2301 SLP848 P0006 60011 T00220017 10022 20011 56029 TSNO=
PAPG 142356Z 22007KT 10SM FEW021 07/04 A2999 RMK AO2 SLP161 60020 T00720039
 10089 20067 $=
PAPH 142356Z AUTO 16007KT 10SM CLR 03/01 A2956 RMK AO2 SLP013 T00330006 10039
 21022 57005=
PAPO 142356Z AUTO 08016KT 5SM -SN BR CLR M04/M06 A2946 RMK AO2 UPE01SNB01
 SLP974 P0000 60000 T10441056 11033 21044 53002 FZRANO=
PAPT 142358Z 00000KT 20SM BKN070 M04/M04 A2940 RMK NOSPECI 400111044 70000
 931000 4/016=
PAQT 142353Z AUTO 05014KT 2 1/2SM -SN BR OVC026 M13/M14 A2973 RMK AO2 SLP070
 P0000 60000 T11281139 11128 21133 52006 TSNO=
PARC 142356Z AUTO 25004KT 10SM OVC014 M07/M08 A2947 RMK AO2 SNE03 SLP036 P0000
 60000 T10721083 11056 21078 56012 FZRANO=
PASA 142356Z AUTO 22007KT 9SM OVC035 M07/M11 A2955 RMK AO2 SNE56 SLP007 P0000
 60000 T10671106 11061 21072 52001 FZRANO $=
PASC 142353Z 06017KT 3SM -SN BLSN FEW011 BKN025 OVC037 M12/M14 A2968 RMK AO2 PK
 WND 06026/2304 SLP054 P0000 60000 T11221139 11122 21128 53005=
PASD 142356Z 21014KT 10SM -RA FEW022 BKN028 BKN038 04/M01 A2956 RMK AO2 RAB56
 SLP013 KH 6//// T00391011 10044 20022 58010 PNO $=
PASH 142356Z AUTO 10SM CLR M13/M14 A2950 RMK AO2 SLP991 60000 T11281139 11028
 21128 53012 FZRANO=
PASI 142353Z 19013G18KT 10SM FEW030 OVC041 08/04 A2996 RMK AO2 SLP145 60004
 T00780039 10078 20067 53014=
PASK 142356Z AUTO 27004KT 1SM UP BR OVC005 M03/M03 A2960 RMK AO2 UPB27SNE27
 SLP019 P0000 60000 T10281033 11011 21028 50006 FZRANO $=
PASL 142356Z AUTO 00000KT 1/2SM FZFG OVC002 M01/M01 A2960 RMK AO2 SLP021
 T10061011 10000 21011 57003 FZRANO=
PASM 142356Z AUTO 09004KT 9SM -SN FEW007 M08/M09 A2958 RMK AO2 SNB41 SLP034
 P0000 60000 T10781089 11072 21100 55006 FZRANO=
PASN 142353Z AUTO 11023G30KT 2 1/2SM -SN BR BKN008 OVC013 02/01 A2915 RMK AO2
 PK WND 12033/2259 SLP873 P0002 60002 T00170006 10017 20011 58041 TSNO=
PASO 142353Z AUTO 00000KT 10SM OVC018 03/02 A2951 RMK AO2 SLP994 I6000
 T00280022 10028 20000 53001 TSNO=
PASX 142356Z AUTO 00000KT 10SM OVC120 M01/M02 A2951 RMK AO2 SLP002 T10061017
 11006 21044 55000 FZRANO=
PASY 142358Z 28025G32KT 7SM BKN017 BKN024 BKN085 02/00 A2880 RMK PK WND
 29032/2339 CIG 017V024 SLP756 60001 4/001 57003=
PATA 142352Z 00000KT 1/4SM FZFG VV003 M06/M07 A2958 RMK AO2 SLP023 I1001 I6001
 T10611067 11044 21061 58009 PNO=
PATG 150024Z AUTO 10010KT 10SM SCT011 OVC020 01/01 A2955 RMK AO2 UPE06 P0000
 FZRANO=
PATK 142353Z 00000KT 10SM OVC075 M03/M05 A2941 RMK AO2 SLP966 T10281050 11022
 21072 55007 $=
PATL 150021Z AUTO 00000KT 10SM FEW006 M02/M02 A2956 RMK AO2 SLP026=
PATO 142353Z AUTO 27009G20KT 1 1/4SM -SN BR OVC017 00/M01 A2941 RMK AO2 SLP961
 P0002 60004 T00001011 10006 20000 52001 TSNO=
PAUN 142356Z AUTO 20008KT 10SM OVC017 M03/M04 A2960 RMK AO2 SLP027 60000
 T10331044 11028 21044 51004 FZRANO=
PAVD 142356Z 04004KT 10SM FEW001 BKN040 OVC065 04/03 A2931 RMK AO2 SLP949 2351Z
 WEA: -RA RAB30 TWR WND 34005KT P0001 6//// T00440033 10044 20006 $=
PAVL 142353Z AUTO 17014KT 2SM -FZRA BR FEW006 OVC021 M02/M02 A2948 RMK AO2
 UPB33E41FZRAB41SNE31 SLP982 P0000 60000 I1001 I6001 T10171022 11006 21022
 53015 TSNO $=
PAWD 142353Z AUTO 34016G24KT 10SM FEW049 OVC060 04/M01 A2939 RMK AO2 PK WND
 34027/2307 SLP954 T00441011 10050 20033 53003 TSNO=
PAWG 142355Z 20005KT 10SM FEW002 SCT030 BKN045 08/04 A3004 RMK (MJ)=
PAWS 142356Z AUTO 00000KT 10SM UP OVC044 M02/M03 A2945 RMK AO2 UPB40 SLP989
 P0000 60000 T10171028 11017 21033 53004 FZRANO=
PAYA 142353Z AUTO 21012G20KT 7SM -RA SCT016 BKN020 OVC029 06/04 A2968 RMK AO2
 PK WND 22029/2258 SLP051 P0003 60008 T00610044 10089 20061 51052 TSNO=
PAZK 142356Z AUTO 23004KT 1 1/2SM -SN BR BKN012 OVC022 M03/M04 A2928 RMK AO2
 SLP968 P0001 60019 T10331039 11033 21044 57001 FZRANO=
PPIZ 142356Z AUTO 05029G34KT 1/4SM -SN FZFG BKN004 OVC008 M14/M16 A2964 RMK AO2
 PK WND 05034/2352 SLP039 P0000 60000 T11391156 11139 21144 58003 FZRANO TSNO=